My Meet Scores
Elena Scarano, Gymnastics and More - MyMeetScores.com
Top100 | Top Teams | Upcoming Meets | Completed Meets | Latest | Add Scores | Help| Support | Bookmark and Share

Elena Scarano, Gymnastics and More
Personal Bests
LevelVault BarsBeamFloorAA
48.9509.050 9.1759.27535.625
58.6508.450 8.7259.00034.125
68.9508.625 9.2259.30036.000
Meet Scores
Date Meet Team Session Level Division Vault Bars Beam Floor AA
2021-03-19 SC State Meet Xcel Silver, Platinum, Diamond, North Myrtle Beach Gymnastics and More 01 6 Sr A 8.925 8 8.000 8 8.675 11 9.100 11 34.700 10
2021-03-05 2021 Kupets Pink Invitational Gymnastics and More 04C 6 Sr A 8.750 3 8.350 11T 9.175 9 9.300 6T 35.575 8
2021-02-26 2021 Charleston Cup Gymnastics and More 4A 6 Sr B 8.950 18 8.625 12 9.225 11 9.200 12 36.000 12
2021-02-05 Palmetto Patriots Classic Gymnastics and More 1 6 Sr B 8.900 7T 7.925 7 7.950 9 8.900 7 33.675 9
2021-01-26 2021 Ultimate Beach Classic Gymnastics and More 06 6 SENIOR 8.150 12 7.800 13 9.125 7T 9.225 8T 34.300 11
2020-12-18 Teddy Bear Tumble 2020 Gymnastics and More 12 6 12 & up 8.525 5 8.500 3 9.000 3 0.000 4T 26.025 4
2020-02-21 Kinetic Classic Wilmette Gymnastics 03 5 Older 8.450 62T 8.450 50 8.725 56 8.500 57T 34.125 57T
2020-01-24 Uga Invitational Wilmette Gymnastics B1 5 Jr B 8.650 9 7.975 9 8.350 10 9.000 6T 33.975 9
2019-12-20 2019 Women's Hawaiian Pineapple Classic Wilmette Gymnastics 4B 5 Ages 12+ 8.600 7T 8.100 7T 8.650 6T 8.100 9 33.450 5
2019-12-06 Ultimate Wish Classic Wilmette Gymnastics 6B 5 SR A 8.650 10T 8.150 10 8.125 10 8.425 14 33.350 12
2019-03-22 Illinois Gymnastics State Championships Wilmette Gymnastics 4 4 JR F 8.700 16T 9.050 14 9.025 14T 8.650 21T 35.425 16
2019-02-15 Big ClassicBIG CLASSIC Wilmette Gymnastics 5A 4 Child D 8.375 10T 8.725 8 7.750 14 8.725 7 33.575 10
2019-02-01 St. Valentines Classic Wilmette Gymnastics 4A 4 10 yrs. 8.500 10T 8.750 6T 9.100 5 9.275 4 35.625 3
2019-01-25 UGA Invitational Wilmette Gymnastics B06 4 Jr B 8.375 8 9.025 7 9.175 4 8.900 4 35.475 5
2018-12-14 Hawaiian Pineapple Classic Wilmette Gymnastics 9B 4 Ages11+ 8.550 6 9.000 2 9.025 2 8.400 5 34.975 2
2018-11-30 Ultimate Wish Classic Wilmette Gymnastics 3 4 SR A 8.950 5T 8.725 10 8.850 12 8.200 19 34.725 12T
2018-11-17 Paul Hamm Thanksgiving Class WOMENS Wilmette Gymnastics 6 4 Middle 8.650 16T 8.700 19 7.850 30 9.000 15T 34.200 24
2018-11-03 Phyllis Matras Invite Wilmette Gymnastics All 4 All 8.550 35T 8.325 40T 8.575 24 8.900 24 34.350 26
2018-03-08 Level 4 & 5 State Wilmette Gymnastics All 4 Yh E 8.400 21 7.725 27 8.450 25 8.225 27 32.800 27
2018-02-16 Big Classic Wilmette Gymnastics 10B 4 Child B 8.600 6 8.550 12 8.250 15 8.600 16 34.000 11
2018-01-26 2018 UGA Classic Wilmette Gymnastics B5 4 Junior 8.250 8T 7.800 11 8.825 6 8.400 7 33.275 8
2017-12-14 2017 Women's Hawaiian Pineapple Classic Wilmette Gymnastics 6A 4 Age10 7.750 14T 7.150 18 8.000 13 8.225 10 31.125 16
2017-12-01 Ultimate Wish Classic Wilmette Gymnastics 12 4 Jr B 8.300 9 7.300 13T 7.900 12T 8.950 5 32.450 11
2017-11-04 Phyllis Matras Invite Wilmette Gymnastics 4 Jr C 8.000 9 7.200 10 8.075 7 8.200 4 31.475 8
Get your scores on
a t-shirt, pin, or hoodie

www.lazysuits.com